createdAt,value
2023-06-02T00:00:48.067Z,20.38
2023-06-02T00:01:48.086Z,20.38
2023-06-02T00:02:48.223Z,20.41
2023-06-02T00:03:48.081Z,20.51
2023-06-02T00:04:48.084Z,20.55
2023-06-02T00:05:48.253Z,20.55
2023-06-02T00:06:48.207Z,20.58
2023-06-02T00:07:48.229Z,20.56
2023-06-02T00:08:48.296Z,20.59
2023-06-02T00:09:48.286Z,20.58
2023-06-02T00:10:48.336Z,20.54
2023-06-02T00:11:48.399Z,20.58
2023-06-02T00:12:48.411Z,20.59
2023-06-02T00:13:48.464Z,20.59
2023-06-02T00:14:48.472Z,20.56
2023-06-02T00:15:48.528Z,20.54
2023-06-02T00:16:48.587Z,20.45
2023-06-02T00:17:48.627Z,20.45
2023-06-02T00:18:48.560Z,20.45
2023-06-02T00:19:48.617Z,20.38
2023-06-02T00:20:48.658Z,20.29
2023-06-02T00:21:48.699Z,20.20
2023-06-02T00:22:48.694Z,20.01
2023-06-02T00:23:48.744Z,20.04
2023-06-02T00:24:48.717Z,19.92
2023-06-02T00:25:48.737Z,19.98
2023-06-02T00:26:48.754Z,19.97
2023-06-02T00:27:48.787Z,20.02
2023-06-02T00:28:48.774Z,20.08
2023-06-02T00:29:48.735Z,20.04
2023-06-02T00:30:49.398Z,20.05
2023-06-02T00:31:48.920Z,19.67
2023-06-02T00:32:48.892Z,19.82
2023-06-02T00:33:48.898Z,19.81
2023-06-02T00:34:48.892Z,19.87
2023-06-02T00:35:50.638Z,19.85
2023-06-02T00:36:49.020Z,19.87
2023-06-02T00:37:49.029Z,19.81
2023-06-02T00:38:49.115Z,19.63
2023-06-02T00:39:49.115Z,19.64
2023-06-02T00:40:49.143Z,19.71
2023-06-02T00:41:49.222Z,19.82
2023-06-02T00:42:49.260Z,19.85
2023-06-02T00:43:49.305Z,19.89
2023-06-02T00:44:49.357Z,19.81
2023-06-02T00:45:49.439Z,19.84
2023-06-02T00:46:49.495Z,19.63
2023-06-02T00:47:49.557Z,19.60
2023-06-02T00:48:49.519Z,19.57
2023-06-02T00:49:49.604Z,19.58
2023-06-02T00:50:49.602Z,19.61
2023-06-02T00:51:49.674Z,19.57
2023-06-02T00:52:49.681Z,19.38
2023-06-02T00:53:49.715Z,19.34
2023-06-02T00:54:49.734Z,19.37
2023-06-02T00:55:49.807Z,19.40
2023-06-02T00:56:49.790Z,19.47
2023-06-02T00:57:49.809Z,19.57
2023-06-02T00:58:49.838Z,19.47
2023-06-02T00:59:49.884Z,19.47
2023-06-02T01:00:49.948Z,19.44
2023-06-02T01:01:49.933Z,19.27
2023-06-02T01:02:49.940Z,19.46
2023-06-02T01:03:49.993Z,19.51
2023-06-02T01:04:49.994Z,19.60
2023-06-02T01:05:50.052Z,19.63
2023-06-02T01:06:50.109Z,19.70
2023-06-02T01:07:50.102Z,19.63
2023-06-02T01:08:50.111Z,19.54
2023-06-02T01:09:50.135Z,19.53
2023-06-02T01:10:50.180Z,19.50
2023-06-02T01:11:50.223Z,19.42
2023-06-02T01:12:50.199Z,19.47
2023-06-02T01:13:50.325Z,19.56
2023-06-02T01:14:50.262Z,19.50
2023-06-02T01:15:50.386Z,19.47
2023-06-02T01:16:50.420Z,19.11
2023-06-02T01:17:50.437Z,19.31
2023-06-02T01:18:50.406Z,19.26
2023-06-02T01:19:50.457Z,19.30
2023-06-02T01:20:50.717Z,19.34
2023-06-02T01:21:50.532Z,19.28
2023-06-02T01:22:50.452Z,19.31
2023-06-02T01:23:50.489Z,19.34
2023-06-02T01:24:50.555Z,19.02
2023-06-02T01:25:50.552Z,18.99
2023-06-02T01:26:50.591Z,18.74
2023-06-02T01:27:50.649Z,19.02
2023-06-02T01:28:50.653Z,19.11
2023-06-02T01:29:50.650Z,19.17
2023-06-02T01:30:50.725Z,19.20
2023-06-02T01:31:50.767Z,19.17
2023-06-02T01:32:50.796Z,19.14
2023-06-02T01:33:50.783Z,19.16
2023-06-02T01:34:51.149Z,19.21
2023-06-02T01:35:50.902Z,19.21
2023-06-02T01:36:50.905Z,19.28
2023-06-02T01:37:50.950Z,19.23
2023-06-02T01:38:50.982Z,19.06
2023-06-02T01:39:51.010Z,18.84
2023-06-02T01:40:51.018Z,19.06
2023-06-02T01:41:51.098Z,19.14
2023-06-02T01:42:51.134Z,19.16
2023-06-02T01:43:51.139Z,18.69
2023-06-02T01:44:51.157Z,18.83
2023-06-02T01:45:51.233Z,18.87
2023-06-02T01:46:51.267Z,18.96
2023-06-02T01:47:51.288Z,19.03
2023-06-02T01:48:51.262Z,18.87
2023-06-02T01:49:51.253Z,18.96
2023-06-02T01:50:51.360Z,18.94
2023-06-02T01:51:51.300Z,19.02
2023-06-02T01:52:51.389Z,18.80
2023-06-02T01:53:51.385Z,18.71
2023-06-02T01:54:51.490Z,18.64
2023-06-02T01:55:51.528Z,18.66
2023-06-02T01:56:51.540Z,18.53
2023-06-02T01:57:51.613Z,18.62
2023-06-02T01:58:51.656Z,18.60
2023-06-02T01:59:51.731Z,18.63
2023-06-02T02:00:51.763Z,18.64
2023-06-02T02:01:51.837Z,18.74
2023-06-02T02:02:52.001Z,18.84
2023-06-02T02:03:51.939Z,18.83
2023-06-02T02:04:51.860Z,18.90
2023-06-02T02:05:51.879Z,18.92
2023-06-02T02:06:51.908Z,18.89
2023-06-02T02:07:51.973Z,18.84
2023-06-02T02:08:51.930Z,18.76
2023-06-02T02:09:51.967Z,18.77
2023-06-02T02:10:52.014Z,18.82
2023-06-02T02:11:52.016Z,18.84
2023-06-02T02:12:52.051Z,18.83
2023-06-02T02:13:52.074Z,18.84
2023-06-02T02:14:52.138Z,18.89
2023-06-02T02:15:52.223Z,18.71
2023-06-02T02:16:52.252Z,18.62
2023-06-02T02:17:52.268Z,18.67
2023-06-02T02:18:52.230Z,18.67
2023-06-02T02:19:52.330Z,18.66
2023-06-02T02:20:52.367Z,18.64
2023-06-02T02:21:52.486Z,18.56
2023-06-02T02:22:52.429Z,18.57
2023-06-02T02:23:52.525Z,18.43
2023-06-02T02:24:52.536Z,18.29
2023-06-02T02:25:52.568Z,18.31
2023-06-02T02:26:52.555Z,18.12
2023-06-02T02:27:52.598Z,18.29
2023-06-02T02:28:52.573Z,18.33
2023-06-02T02:29:52.590Z,18.36
2023-06-02T02:30:52.673Z,18.39
2023-06-02T02:31:52.939Z,18.42
2023-06-02T02:32:52.775Z,18.36
2023-06-02T02:33:52.734Z,18.03
2023-06-02T02:34:52.812Z,18.17
2023-06-02T02:35:52.759Z,18.28
2023-06-02T02:36:52.814Z,18.20
2023-06-02T02:37:52.841Z,18.11
2023-06-02T02:38:52.854Z,18.19
2023-06-02T02:39:52.880Z,18.20
2023-06-02T02:40:52.932Z,18.29
2023-06-02T02:41:52.951Z,18.17
2023-06-02T02:42:52.934Z,18.17
2023-06-02T02:43:52.952Z,18.08
2023-06-02T02:44:52.976Z,18.05
2023-06-02T02:45:53.025Z,18.13
2023-06-02T02:46:53.035Z,17.79
2023-06-02T02:47:53.126Z,17.69
2023-06-02T02:48:53.144Z,17.81
2023-06-02T02:49:53.158Z,17.64
2023-06-02T02:50:53.213Z,17.48
2023-06-02T02:51:53.271Z,17.55
2023-06-02T02:52:53.338Z,17.71
2023-06-02T02:53:53.414Z,17.76
2023-06-02T02:54:53.436Z,17.84
2023-06-02T02:55:53.511Z,17.86
2023-06-02T02:56:53.548Z,17.86
2023-06-02T02:57:53.572Z,17.89
2023-06-02T02:58:53.582Z,17.93
2023-06-02T02:59:53.671Z,17.95
2023-06-02T03:00:53.755Z,17.68
2023-06-02T03:01:53.752Z,17.90
2023-06-02T03:02:53.819Z,17.93
2023-06-02T03:03:53.825Z,17.95
2023-06-02T03:04:53.843Z,17.99
2023-06-02T03:05:53.926Z,18.02
2023-06-02T03:06:53.978Z,17.95
2023-06-02T03:07:54.005Z,17.93
2023-06-02T03:08:53.982Z,17.98
2023-06-02T03:09:54.066Z,18.00
2023-06-02T03:10:54.077Z,17.96
2023-06-02T03:11:54.059Z,18.02
2023-06-02T03:12:54.072Z,17.88
2023-06-02T03:13:54.126Z,17.99
2023-06-02T03:14:54.153Z,17.98
2023-06-02T03:15:54.176Z,17.86
2023-06-02T03:16:54.247Z,18.00
2023-06-02T03:17:54.263Z,17.92
2023-06-02T03:18:54.252Z,17.86
2023-06-02T03:19:54.313Z,17.88
2023-06-02T03:20:54.329Z,17.81
2023-06-02T03:21:54.370Z,17.62
2023-06-02T03:22:54.348Z,17.76
2023-06-02T03:23:54.429Z,17.78
2023-06-02T03:24:54.372Z,17.81
2023-06-02T03:25:54.417Z,17.92
2023-06-02T03:26:54.418Z,17.96
2023-06-02T03:27:54.471Z,17.93
2023-06-02T03:28:54.481Z,17.93
2023-06-02T03:29:54.517Z,17.96
2023-06-02T03:30:54.537Z,17.92
2023-06-02T03:31:54.553Z,17.93
2023-06-02T03:32:54.587Z,17.62
2023-06-02T03:33:54.620Z,17.75
2023-06-02T03:34:54.595Z,17.78
2023-06-02T03:35:54.650Z,17.61
2023-06-02T03:36:54.654Z,17.61
2023-06-02T03:37:54.689Z,17.61
2023-06-02T03:38:54.639Z,17.32
2023-06-02T03:39:54.656Z,17.41
2023-06-02T03:40:54.669Z,17.51
2023-06-02T03:41:54.683Z,17.53
2023-06-02T03:42:54.687Z,17.35
2023-06-02T03:43:56.673Z,17.29
2023-06-02T03:44:54.757Z,17.25
2023-06-02T03:45:54.820Z,17.38
2023-06-02T03:46:54.867Z,17.32
2023-06-02T03:47:54.861Z,17.22
2023-06-02T03:48:54.838Z,17.34
2023-06-02T03:49:54.861Z,17.48
2023-06-02T03:50:54.970Z,17.55
2023-06-02T03:51:55.007Z,17.61
2023-06-02T03:52:55.009Z,17.61
2023-06-02T03:53:55.058Z,17.66
2023-06-02T03:54:55.100Z,17.34
2023-06-02T03:55:55.135Z,17.49
2023-06-02T03:56:55.098Z,17.55
2023-06-02T03:57:55.156Z,17.51
2023-06-02T03:58:55.167Z,17.53
2023-06-02T03:59:55.185Z,17.66
2023-06-02T04:00:55.232Z,17.76
2023-06-02T04:01:55.264Z,17.69
2023-06-02T04:02:55.250Z,17.45
2023-06-02T04:03:55.360Z,17.53
2023-06-02T04:04:55.302Z,17.56
2023-06-02T04:05:55.255Z,17.68
2023-06-02T04:06:55.313Z,17.72
2023-06-02T04:07:55.382Z,17.85
2023-06-02T04:08:55.421Z,17.92
2023-06-02T04:09:55.480Z,17.99
2023-06-02T04:10:55.498Z,18.09
2023-06-02T04:11:55.528Z,17.89
2023-06-02T04:12:55.569Z,18.06
2023-06-02T04:13:55.628Z,18.12
2023-06-02T04:14:55.633Z,18.17
2023-06-02T04:15:55.636Z,18.20
2023-06-02T04:16:55.814Z,18.15
2023-06-02T04:17:55.763Z,18.25
2023-06-02T04:18:55.802Z,18.23
2023-06-02T04:19:55.782Z,18.37
2023-06-02T04:20:55.828Z,18.43
2023-06-02T04:21:55.867Z,18.25
2023-06-02T04:22:55.846Z,18.25
2023-06-02T04:23:55.863Z,18.39
2023-06-02T04:24:55.869Z,18.46
2023-06-02T04:25:55.920Z,18.47
2023-06-02T04:26:55.918Z,18.53
2023-06-02T04:27:55.975Z,18.53
2023-06-02T04:28:55.986Z,18.47
2023-06-02T04:29:55.979Z,18.55
2023-06-02T04:30:55.954Z,18.55
2023-06-02T04:31:56.022Z,18.56
2023-06-02T04:32:56.046Z,18.64
2023-06-02T04:33:56.090Z,18.50
2023-06-02T04:34:56.084Z,18.62
2023-06-02T04:35:56.086Z,18.70
2023-06-02T04:36:56.075Z,18.59
2023-06-02T04:37:56.097Z,18.64
2023-06-02T04:38:56.102Z,18.69
2023-06-02T04:39:56.136Z,18.70
2023-06-02T04:40:56.227Z,18.80
2023-06-02T04:41:56.226Z,18.99
2023-06-02T04:42:56.198Z,19.06
2023-06-02T04:43:56.243Z,19.09
2023-06-02T04:44:56.280Z,18.83
2023-06-02T04:45:56.366Z,19.00
2023-06-02T04:46:56.426Z,19.17
2023-06-02T04:47:56.388Z,19.21
2023-06-02T04:48:56.370Z,19.28
2023-06-02T04:49:56.401Z,19.33
2023-06-02T04:50:56.498Z,19.40
2023-06-02T04:51:56.504Z,19.58
2023-06-02T04:52:56.513Z,19.67
2023-06-02T04:53:56.546Z,19.70
2023-06-02T04:54:56.592Z,19.94
2023-06-02T04:55:56.626Z,20.11
2023-06-02T04:56:56.644Z,20.31
2023-06-02T04:57:56.658Z,20.49
2023-06-02T04:58:56.706Z,20.54
2023-06-02T04:59:56.683Z,20.65
2023-06-02T05:00:56.743Z,20.82
2023-06-02T05:01:56.874Z,20.88
2023-06-02T05:02:56.911Z,21.07
2023-06-02T05:03:56.908Z,20.99
2023-06-02T05:04:56.853Z,20.89
2023-06-02T05:05:56.921Z,20.86
2023-06-02T05:06:56.898Z,20.95
2023-06-02T05:07:56.900Z,21.15
2023-06-02T05:08:56.958Z,21.30
2023-06-02T05:09:56.976Z,21.32
2023-06-02T05:10:57.051Z,21.29
2023-06-02T05:11:57.105Z,21.43
2023-06-02T05:12:57.119Z,21.52
2023-06-02T05:13:57.186Z,21.67
2023-06-02T05:14:57.244Z,21.67
2023-06-02T05:15:57.248Z,21.74
2023-06-02T05:16:57.266Z,21.80
2023-06-02T05:17:57.352Z,21.85
2023-06-02T05:18:57.291Z,22.10
2023-06-02T05:19:57.322Z,22.10
2023-06-02T05:20:57.436Z,22.03
2023-06-02T05:21:57.445Z,22.31
2023-06-02T05:22:57.443Z,22.40
2023-06-02T05:23:57.432Z,22.56
2023-06-02T05:24:57.465Z,22.61
2023-06-02T05:25:57.545Z,22.74
2023-06-02T05:26:57.638Z,22.88
2023-06-02T05:27:57.644Z,22.78
2023-06-02T05:28:57.695Z,23.04
2023-06-02T05:29:57.761Z,23.25
2023-06-02T05:30:57.799Z,23.22
2023-06-02T05:31:57.918Z,23.38
2023-06-02T05:32:57.918Z,23.34
2023-06-02T05:33:57.838Z,23.61
2023-06-02T05:34:57.916Z,23.81
2023-06-02T05:35:58.175Z,23.91
2023-06-02T05:36:58.010Z,23.82
2023-06-02T05:37:58.064Z,23.68
2023-06-02T05:38:58.119Z,23.88
2023-06-02T05:39:58.246Z,23.98
2023-06-02T05:40:58.300Z,24.11
2023-06-02T05:41:58.293Z,24.26
2023-06-02T05:42:58.280Z,23.79
2023-06-02T05:43:58.272Z,24.09
2023-06-02T05:44:58.263Z,23.99
2023-06-02T05:45:58.379Z,24.13
2023-06-02T05:46:58.377Z,24.23
2023-06-02T05:47:58.564Z,24.38
2023-06-02T05:48:58.359Z,24.62
2023-06-02T05:49:58.435Z,24.63
2023-06-02T05:50:58.443Z,24.60
2023-06-02T05:51:58.516Z,23.94
2023-06-02T05:52:58.559Z,24.02
2023-06-02T05:53:58.635Z,24.01
2023-06-02T05:54:58.582Z,23.86
2023-06-02T05:55:58.669Z,23.99
2023-06-02T05:56:58.707Z,23.75
2023-06-02T05:57:58.725Z,23.82
2023-06-02T05:58:58.745Z,23.82
2023-06-02T05:59:58.771Z,23.75
2023-06-02T06:00:58.836Z,23.78
2023-06-02T06:01:58.914Z,23.69
2023-06-02T06:02:59.007Z,23.35
2023-06-02T06:03:59.053Z,23.45
2023-06-02T06:04:58.963Z,23.47
2023-06-02T06:05:59.105Z,23.19
2023-06-02T06:06:59.097Z,22.78
2023-06-02T06:07:59.128Z,23.02
2023-06-02T06:08:59.132Z,23.01
2023-06-02T06:09:59.155Z,23.08
2023-06-02T06:10:59.188Z,23.04
2023-06-02T06:11:59.189Z,23.44
2023-06-02T06:12:59.214Z,23.24
2023-06-02T06:13:59.241Z,23.35
2023-06-02T06:14:59.271Z,23.19
2023-06-02T06:15:59.372Z,23.29
2023-06-02T06:16:59.317Z,22.95
2023-06-02T06:17:59.414Z,22.87
2023-06-02T06:18:59.372Z,22.54
2023-06-02T06:19:59.415Z,22.83
2023-06-02T06:20:59.505Z,22.86
2023-06-02T06:21:59.521Z,22.70
2023-06-02T06:22:59.567Z,22.84
2023-06-02T06:23:59.615Z,23.13
2023-06-02T06:24:59.570Z,23.37
2023-06-02T06:25:59.733Z,23.79
2023-06-02T06:26:59.732Z,24.16
2023-06-02T06:27:59.705Z,24.04
2023-06-02T06:28:59.722Z,24.31
2023-06-02T06:29:59.801Z,24.82
2023-06-02T06:30:59.798Z,25.22
2023-06-02T06:31:59.813Z,25.41
2023-06-02T06:32:59.870Z,25.88
2023-06-02T06:33:59.917Z,26.11
2023-06-02T06:34:59.953Z,26.05
2023-06-02T06:35:59.950Z,26.16
2023-06-02T06:36:59.957Z,26.20
2023-06-02T06:38:07.609Z,26.68
2023-06-02T06:38:59.999Z,27.06
2023-06-02T06:39:59.971Z,27.42
2023-06-02T06:41:00.001Z,27.55
2023-06-02T06:42:00.001Z,27.89
2023-06-02T06:43:05.396Z,27.88
2023-06-02T06:44:00.938Z,28.32
2023-06-02T06:44:59.916Z,28.43
2023-06-02T06:45:59.947Z,28.90
2023-06-02T06:46:59.914Z,28.89
2023-06-02T06:48:00.098Z,29.30
2023-06-02T06:49:00.073Z,29.61
2023-06-02T06:50:00.047Z,29.54
2023-06-02T06:50:59.938Z,29.88
2023-06-02T06:51:59.862Z,30.04
2023-06-02T06:52:59.876Z,30.16
2023-06-02T06:53:59.859Z,30.58
2023-06-02T06:54:59.826Z,30.31
2023-06-02T06:55:59.841Z,30.81
2023-06-02T06:56:59.853Z,30.87
2023-06-02T06:57:59.841Z,31.19
2023-06-02T06:58:59.907Z,31.33
2023-06-02T06:59:59.844Z,31.46
2023-06-02T07:00:59.966Z,31.75
2023-06-02T07:01:59.936Z,31.91
2023-06-02T07:03:00.053Z,31.52
2023-06-02T07:03:59.996Z,31.56
2023-06-02T07:05:00.002Z,31.29
2023-06-02T07:06:00.180Z,31.76
2023-06-02T07:07:00.134Z,31.89
2023-06-02T07:08:00.171Z,32.30
2023-06-02T07:09:00.165Z,32.48
2023-06-02T07:10:00.180Z,32.77
2023-06-02T07:11:00.189Z,32.73
2023-06-02T07:12:00.283Z,32.48
2023-06-02T07:13:00.309Z,32.41
2023-06-02T07:14:14.638Z,32.48
2023-06-02T07:15:01.317Z,32.53
2023-06-02T07:16:00.341Z,32.44
2023-06-02T07:17:00.576Z,32.66
2023-06-02T07:18:01.224Z,31.76
2023-06-02T07:19:07.872Z,31.80
2023-06-02T07:20:00.293Z,32.09
2023-06-02T07:21:00.292Z,32.54
2023-06-02T07:22:00.349Z,32.73
2023-06-02T07:23:00.220Z,33.05
2023-06-02T07:24:01.802Z,33.31
2023-06-02T07:25:00.240Z,33.40
2023-06-02T07:26:00.376Z,33.29
2023-06-02T07:27:00.199Z,33.28
2023-06-02T07:28:00.263Z,33.34
2023-06-02T07:29:00.286Z,33.45
2023-06-02T07:30:00.187Z,33.34
2023-06-02T07:31:09.025Z,33.71
2023-06-02T07:32:01.364Z,33.71
2023-06-02T07:33:00.380Z,33.79
2023-06-02T07:34:00.176Z,33.75
2023-06-02T07:35:00.240Z,33.61
2023-06-02T07:36:00.226Z,33.25
2023-06-02T07:37:00.231Z,33.55
2023-06-02T07:38:00.167Z,33.14
2023-06-02T07:39:00.192Z,33.54
2023-06-02T07:40:00.192Z,33.32
2023-06-02T07:41:00.155Z,33.55
2023-06-02T07:42:00.158Z,33.40
2023-06-02T07:43:00.318Z,33.92
2023-06-02T07:44:00.135Z,33.75
2023-06-02T07:45:00.148Z,33.84
2023-06-02T07:46:00.230Z,33.68
2023-06-02T07:47:00.359Z,33.57
2023-06-02T07:48:00.348Z,33.58
2023-06-02T07:49:00.275Z,33.51
2023-06-02T07:50:00.455Z,33.92
2023-06-02T07:51:00.420Z,34.02
2023-06-02T07:52:00.398Z,32.87
2023-06-02T07:53:00.383Z,31.03
2023-06-02T07:54:00.383Z,30.36
2023-06-02T07:55:00.443Z,31.22
2023-06-02T07:56:00.583Z,30.04
2023-06-02T07:57:00.480Z,29.18
2023-06-02T07:58:00.523Z,28.98
2023-06-02T07:59:00.586Z,28.96
2023-06-02T08:00:00.618Z,29.81
2023-06-02T08:01:00.633Z,30.12
2023-06-02T08:02:00.702Z,30.82
2023-06-02T08:03:00.738Z,31.30
2023-06-02T08:04:00.878Z,31.81
2023-06-02T08:05:00.775Z,31.91
2023-06-02T08:06:00.815Z,31.63
2023-06-02T08:07:00.872Z,30.83
2023-06-02T08:08:00.873Z,31.81
2023-06-02T08:09:00.920Z,31.23
2023-06-02T08:10:00.922Z,31.86
2023-06-02T08:11:00.933Z,32.37
2023-06-02T08:12:00.929Z,32.66
2023-06-02T08:13:00.932Z,33.32
2023-06-02T08:14:00.985Z,33.57
2023-06-02T08:15:01.075Z,33.74
2023-06-02T08:16:20.563Z,33.79
2023-06-02T08:17:02.071Z,33.95
2023-06-02T08:18:01.107Z,33.82
2023-06-02T08:19:01.123Z,33.85
2023-06-02T08:20:01.097Z,33.68
2023-06-02T08:21:01.083Z,33.95
2023-06-02T08:22:01.053Z,33.65
2023-06-02T08:23:01.061Z,31.22
2023-06-02T08:24:01.062Z,32.61
2023-06-02T08:25:01.018Z,33.04
2023-06-02T08:26:01.211Z,33.37
2023-06-02T08:27:00.968Z,33.50
2023-06-02T08:28:00.996Z,33.78
2023-06-02T08:29:01.005Z,31.84
2023-06-02T08:30:01.006Z,31.75
2023-06-02T08:31:01.014Z,32.75
2023-06-02T08:32:01.163Z,33.31
2023-06-02T08:33:01.191Z,33.78
2023-06-02T08:34:01.079Z,33.74
2023-06-02T08:35:01.638Z,33.44
2023-06-02T08:36:01.257Z,33.01
2023-06-02T08:37:01.284Z,32.78
2023-06-02T08:38:01.357Z,32.80
2023-06-02T08:39:01.287Z,33.41
2023-06-02T08:40:01.314Z,33.47
2023-06-02T08:41:01.370Z,34.18
2023-06-02T08:42:01.381Z,34.55
2023-06-02T08:43:01.405Z,34.28
2023-06-02T08:44:01.465Z,33.37
2023-06-02T08:45:01.470Z,32.37
2023-06-02T08:46:01.682Z,32.69
2023-06-02T08:47:01.516Z,33.28
2023-06-02T08:48:01.534Z,32.64
2023-06-02T08:49:01.702Z,32.90
2023-06-02T08:50:01.614Z,33.44
2023-06-02T08:51:01.705Z,34.02
2023-06-02T08:52:01.713Z,34.26
2023-06-02T08:53:01.698Z,34.73
2023-06-02T08:54:03.397Z,33.69
2023-06-02T08:55:01.652Z,33.44
2023-06-02T08:56:01.860Z,32.75
2023-06-02T08:57:01.752Z,32.70
2023-06-02T08:58:01.744Z,33.38
2023-06-02T08:59:01.808Z,33.50
2023-06-02T09:00:01.861Z,33.61
2023-06-02T09:01:01.941Z,34.34
2023-06-02T09:02:01.990Z,34.70
2023-06-02T09:03:01.996Z,34.85
2023-06-02T09:04:02.025Z,35.05
2023-06-02T09:05:02.081Z,35.42
2023-06-02T09:06:02.078Z,34.82
2023-06-02T09:07:02.046Z,34.62
2023-06-02T09:08:02.080Z,34.93
2023-06-02T09:09:02.292Z,35.22
2023-06-02T09:10:02.264Z,35.33
2023-06-02T09:11:02.239Z,35.60
2023-06-02T09:12:02.246Z,35.55
2023-06-02T09:13:02.313Z,36.15
2023-06-02T09:14:02.378Z,36.50
2023-06-02T09:15:02.406Z,36.75
2023-06-02T09:16:02.583Z,37.07
2023-06-02T09:17:02.457Z,37.04
2023-06-02T09:18:02.529Z,34.69
2023-06-02T09:19:02.551Z,35.22
2023-06-02T09:20:02.582Z,35.26
2023-06-02T09:21:02.956Z,35.23
2023-06-02T09:22:02.617Z,35.40
2023-06-02T09:23:02.577Z,35.05
2023-06-02T09:24:12.779Z,35.75
2023-06-02T09:25:03.574Z,35.46
2023-06-02T09:26:09.532Z,35.25
2023-06-02T09:27:03.577Z,34.58
2023-06-02T09:28:02.557Z,34.98
2023-06-02T09:29:02.536Z,35.56
2023-06-02T09:30:02.517Z,35.96
2023-06-02T09:31:02.734Z,34.96
2023-06-02T09:32:02.606Z,35.73
2023-06-02T09:33:02.571Z,34.81
2023-06-02T09:34:02.561Z,35.53
2023-06-02T09:35:02.531Z,35.55
2023-06-02T09:36:02.849Z,36.19
2023-06-02T09:37:02.552Z,35.96
2023-06-02T09:38:02.548Z,36.36
2023-06-02T09:39:02.483Z,36.78
2023-06-02T09:40:02.463Z,36.44
2023-06-02T09:41:02.733Z,36.49
2023-06-02T09:42:02.577Z,34.95
2023-06-02T09:43:02.555Z,33.64
2023-06-02T09:44:02.599Z,33.78
2023-06-02T09:45:02.598Z,33.41
2023-06-02T09:46:03.117Z,34.21
2023-06-02T09:47:02.871Z,34.68
2023-06-02T09:48:02.787Z,33.48
2023-06-02T09:49:02.815Z,31.99
2023-06-02T09:50:02.813Z,31.76
2023-06-02T09:51:02.830Z,32.66
2023-06-02T09:52:02.873Z,33.35
2023-06-02T09:53:02.833Z,34.12
2023-06-02T09:54:02.884Z,34.79
2023-06-02T09:55:04.132Z,33.55
2023-06-02T09:56:02.958Z,33.87
2023-06-02T09:57:03.009Z,32.66
2023-06-02T09:58:03.069Z,32.80
2023-06-02T09:59:03.089Z,33.50
2023-06-02T10:00:03.036Z,33.99
2023-06-02T10:01:03.354Z,33.41
2023-06-02T10:02:03.240Z,32.37
2023-06-02T10:03:03.270Z,31.94
2023-06-02T10:04:03.139Z,32.13
2023-06-02T10:05:03.183Z,30.25
2023-06-02T10:06:03.578Z,31.13
2023-06-02T10:07:03.233Z,30.78
2023-06-02T10:08:03.300Z,30.18
2023-06-02T10:09:03.302Z,30.89
2023-06-02T10:10:03.370Z,30.83
2023-06-02T10:11:03.702Z,30.48
2023-06-02T10:12:03.425Z,31.12
2023-06-02T10:13:03.433Z,31.57
2023-06-02T10:14:03.438Z,32.04
2023-06-02T10:15:03.500Z,32.98
2023-06-02T10:16:03.593Z,33.78
2023-06-02T10:17:03.581Z,34.02
2023-06-02T10:18:11.208Z,33.69
2023-06-02T10:19:03.563Z,33.25
2023-06-02T10:20:03.636Z,32.34
2023-06-02T10:21:03.742Z,32.80
2023-06-02T10:22:03.661Z,32.90
2023-06-02T10:23:03.709Z,30.66
2023-06-02T10:24:03.736Z,31.50
2023-06-02T10:25:03.591Z,32.41
2023-06-02T10:26:03.581Z,33.35
2023-06-02T10:27:03.529Z,33.64
2023-06-02T10:28:03.538Z,33.89
2023-06-02T10:29:03.534Z,34.15
2023-06-02T10:30:03.554Z,34.85
2023-06-02T10:31:03.756Z,35.61
2023-06-02T10:32:03.518Z,36.17
2023-06-02T10:33:03.555Z,34.19
2023-06-02T10:34:03.547Z,32.98
2023-06-02T10:35:03.499Z,34.31
2023-06-02T10:36:07.233Z,32.80
2023-06-02T10:37:03.495Z,32.06
2023-06-02T10:38:03.555Z,31.83
2023-06-02T10:39:03.586Z,31.75
2023-06-02T10:40:03.555Z,31.12
2023-06-02T10:42:30.199Z,32.17
2023-06-02T10:43:22.592Z,32.48
2023-06-02T10:44:22.587Z,31.16
2023-06-02T10:45:22.556Z,31.62
2023-06-02T10:46:22.719Z,32.31
2023-06-02T10:47:22.588Z,32.10
2023-06-02T10:48:22.519Z,32.34
2023-06-02T10:49:22.554Z,33.00
2023-06-02T10:50:22.591Z,33.91
2023-06-02T10:51:22.565Z,34.54
2023-06-02T10:52:22.556Z,35.10
2023-06-02T10:53:22.546Z,35.28
2023-06-02T10:54:22.543Z,35.63
2023-06-02T10:55:22.522Z,36.16
2023-06-02T10:56:22.511Z,35.83
2023-06-02T10:57:22.498Z,34.92
2023-06-02T10:58:22.500Z,33.40
2023-06-02T10:59:22.467Z,31.20
2023-06-02T11:00:22.471Z,31.16
2023-06-02T11:01:22.492Z,30.92
2023-06-02T11:02:22.539Z,31.75
2023-06-02T11:03:22.633Z,31.59
2023-06-02T11:04:22.450Z,32.20
2023-06-02T11:05:22.432Z,31.18
2023-06-02T11:06:22.473Z,31.19
2023-06-02T11:07:22.459Z,32.41
2023-06-02T11:08:22.508Z,33.32
2023-06-02T11:09:22.479Z,33.87
2023-06-02T11:10:22.511Z,33.58
2023-06-02T11:11:22.534Z,31.91
2023-06-02T11:12:22.556Z,31.50
2023-06-02T11:13:22.591Z,32.41
2023-06-02T11:14:22.636Z,33.03
2023-06-02T11:15:22.748Z,33.38
2023-06-02T11:16:24.482Z,33.91
2023-06-02T11:17:22.721Z,33.58
2023-06-02T11:18:22.756Z,33.84
2023-06-02T11:19:22.699Z,33.72
2023-06-02T11:20:22.753Z,32.04
2023-06-02T11:21:24.777Z,30.75
2023-06-02T11:22:22.730Z,31.47
2023-06-02T11:23:22.746Z,31.77
2023-06-02T11:24:22.747Z,31.22
2023-06-02T11:25:22.743Z,32.01
2023-06-02T11:26:22.806Z,32.97
2023-06-02T11:27:22.724Z,33.35
2023-06-02T11:28:22.721Z,33.68
2023-06-02T11:29:22.743Z,34.04
2023-06-02T11:30:22.700Z,34.98
2023-06-02T11:31:22.803Z,35.72
2023-06-02T11:32:22.784Z,36.17
2023-06-02T11:33:24.557Z,36.63
2023-06-02T11:34:22.671Z,36.93
2023-06-02T11:35:22.687Z,37.31
2023-06-02T11:36:22.644Z,36.47
2023-06-02T11:37:22.640Z,36.81
2023-06-02T11:38:22.649Z,35.33
2023-06-02T11:39:24.183Z,33.87
2023-06-02T11:40:22.623Z,33.07
2023-06-02T11:41:22.708Z,33.31
2023-06-02T11:42:22.626Z,33.28
2023-06-02T11:43:22.633Z,33.08
2023-06-02T11:44:22.665Z,34.38
2023-06-02T11:45:22.681Z,34.59
2023-06-02T11:46:22.638Z,34.32
2023-06-02T11:47:24.737Z,31.83
2023-06-02T11:48:22.796Z,32.50
2023-06-02T11:49:22.799Z,33.48
2023-06-02T11:50:22.771Z,33.82
2023-06-02T11:51:22.832Z,34.63
2023-06-02T11:52:22.887Z,35.46
2023-06-02T11:53:24.483Z,35.87
2023-06-02T11:54:23.050Z,35.08
2023-06-02T11:55:23.101Z,33.20
2023-06-02T11:56:23.030Z,34.18
2023-06-02T11:57:23.026Z,34.05
2023-06-02T11:58:23.079Z,34.54
2023-06-02T11:59:24.654Z,34.21
2023-06-02T12:00:23.154Z,35.28
2023-06-02T12:01:23.319Z,34.51
2023-06-02T12:02:23.302Z,34.22
2023-06-02T12:03:23.304Z,34.52
2023-06-02T12:04:23.400Z,34.61
2023-06-02T12:05:24.470Z,35.57
2023-06-02T12:06:23.337Z,35.12
2023-06-02T12:07:23.346Z,35.55
2023-06-02T12:08:23.541Z,32.77
2023-06-02T12:09:23.412Z,34.38
2023-06-02T12:10:31.475Z,34.58
2023-06-02T12:11:24.500Z,33.13
2023-06-02T12:12:23.472Z,33.32
2023-06-02T12:13:23.462Z,33.32
2023-06-02T12:14:23.455Z,34.28
2023-06-02T12:15:23.395Z,33.91
2023-06-02T12:16:23.449Z,34.58
2023-06-02T12:17:25.150Z,34.86
2023-06-02T12:18:23.391Z,34.62
2023-06-02T12:19:23.387Z,34.89
2023-06-02T12:20:23.410Z,34.63
2023-06-02T12:21:24.970Z,35.22
2023-06-02T12:22:23.460Z,35.63
2023-06-02T12:23:23.349Z,35.37
2023-06-02T12:24:23.401Z,33.32
2023-06-02T12:25:23.364Z,33.94
2023-06-02T12:26:23.424Z,34.22
2023-06-02T12:27:25.335Z,33.88
2023-06-02T12:28:23.710Z,32.93
2023-06-02T12:29:23.760Z,32.56
2023-06-02T12:30:23.792Z,32.64
2023-06-02T12:31:23.871Z,32.74
2023-06-02T12:32:23.843Z,32.30
2023-06-02T12:33:24.813Z,33.29
2023-06-02T12:34:23.947Z,33.69
2023-06-02T12:35:23.951Z,34.12
2023-06-02T12:36:24.075Z,33.89
2023-06-02T12:37:23.996Z,31.84
2023-06-02T12:38:24.040Z,32.56
2023-06-02T12:39:24.082Z,33.68
2023-06-02T12:40:34.213Z,34.70
2023-06-02T12:41:24.186Z,34.38
2023-06-02T12:42:24.128Z,34.56
2023-06-02T12:43:24.120Z,34.58
2023-06-02T12:44:24.086Z,35.20
2023-06-02T12:45:24.888Z,34.66
2023-06-02T12:46:24.155Z,33.67
2023-06-02T12:47:24.120Z,31.29
2023-06-02T12:48:24.091Z,30.26
2023-06-02T12:49:24.102Z,30.87
2023-06-02T12:51:50.822Z,31.77
2023-06-02T12:52:43.297Z,32.97
2023-06-02T12:53:43.144Z,33.45
2023-06-02T12:54:43.160Z,33.92
2023-06-02T12:55:43.180Z,34.62